CheckWX is a tool to help pilots better visualize weather data.  It is not intended as a substitute for an official pre-flight weather briefing.

20:36:42 UTC

KMRH METAR
Michael J Smith Field Airport
Beaufort, North Carolina, USA
Current

39 mins ago

KMRH 181958Z AUTO 19011KT 10SM SCT035 SCT042 23/17 A3007 RMK AO2 SLP182 T02280172
Observed
Apr-18 @ 19:58 UTC
Wind
  • 190° at 11 KTS
Visibility
10 SM
Flight Rules
VFR
Cloud Levels
  • Scattered at 3,500' AGL
  • Scattered at 4,200' AGL
Temperature
23°C / 73°F
Dewpoint
17°C / 63°F
Humidity
69%
Altimeter
30.07" Hg
Pressure
1018.2 hPa
Previous

2 hours ago

KMRH 181858Z AUTO 20010KT 10SM SCT038 24/17 A3010 RMK AO2 SLP192 T02390172
Observed
Apr-18 @ 18:58 UTC
Wind
  • 200° at 10 KTS
Visibility
10 SM
Flight Rules
VFR
Cloud Levels
  • Scattered at 3,800' AGL
Temperature
24°C / 75°F
Dewpoint
17°C / 63°F
Humidity
65%
Altimeter
30.1" Hg
Pressure
1019.2 hPa
Previous

3 hours ago

KMRH 181758Z AUTO 19012KT 10SM FEW038 24/18 A3010 RMK AO2 SLP194 T02390178 10244 20200 58003
Observed
Apr-18 @ 17:58 UTC
Wind
  • 190° at 12 KTS
Visibility
10 SM
Flight Rules
VFR
Cloud Levels
  • Few at 3,800' AGL
Temperature
24°C / 75°F
Dewpoint
18°C / 64°F
Humidity
69%
Altimeter
30.1" Hg
Pressure
1019.4 hPa